sensor_id;sensor_type;location;lat;lon;timestamp;pressure;altitude;pressure_sealevel;temperature;humidity
68476;BME280;55464;48.266;14.188;2023-10-13T00:00:32;97913.47;;;21.79;52.20
68476;BME280;55464;48.266;14.188;2023-10-13T00:03:06;97924.66;;;21.83;52.21
68476;BME280;55464;48.266;14.188;2023-10-13T00:05:40;97917.06;;;21.80;52.68
68476;BME280;55464;48.266;14.188;2023-10-13T00:08:07;97921.81;;;21.86;52.79
68476;BME280;55464;48.266;14.188;2023-10-13T00:10:33;97931.00;;;21.87;52.52
68476;BME280;55464;48.266;14.188;2023-10-13T00:12:59;97925.06;;;21.81;52.94
68476;BME280;55464;48.266;14.188;2023-10-13T00:15:45;97930.63;;;21.85;52.87
68476;BME280;55464;48.266;14.188;2023-10-13T00:18:30;97923.84;;;21.82;53.01
68476;BME280;55464;48.266;14.188;2023-10-13T00:20:59;97925.88;;;21.78;52.91
68476;BME280;55464;48.266;14.188;2023-10-13T00:23:25;97921.91;;;21.76;53.18
68476;BME280;55464;48.266;14.188;2023-10-13T00:25:54;97919.91;;;21.76;53.28
68476;BME280;55464;48.266;14.188;2023-10-13T00:28:26;97923.50;;;21.77;53.60
68476;BME280;55464;48.266;14.188;2023-10-13T00:31:00;97921.09;;;21.75;53.29
68476;BME280;55464;48.266;14.188;2023-10-13T00:33:26;97930.34;;;21.72;53.30
68476;BME280;55464;48.266;14.188;2023-10-13T00:35:52;97925.22;;;21.67;53.70
68476;BME280;55464;48.266;14.188;2023-10-13T00:38:17;97925.22;;;21.63;53.38
68476;BME280;55464;48.266;14.188;2023-10-13T00:40:44;97875.34;;;21.40;53.24
68476;BME280;55464;48.266;14.188;2023-10-13T00:43:17;97908.00;;;21.61;53.18
68476;BME280;55464;48.266;14.188;2023-10-13T00:45:53;97901.66;;;21.57;53.64
68476;BME280;55464;48.266;14.188;2023-10-13T00:48:41;97902.00;;;21.63;53.37
68476;BME280;55464;48.266;14.188;2023-10-13T00:51:10;97906.03;;;21.62;53.55
68476;BME280;55464;48.266;14.188;2023-10-13T00:54:04;97891.22;;;21.58;52.98
68476;BME280;55464;48.266;14.188;2023-10-13T00:56:39;97905.59;;;21.63;52.57
68476;BME280;55464;48.266;14.188;2023-10-13T00:59:08;97903.22;;;21.62;52.47
68476;BME280;55464;48.266;14.188;2023-10-13T01:01:35;97888.41;;;21.58;52.62
68476;BME280;55464;48.266;14.188;2023-10-13T01:04:02;97900.38;;;21.65;52.13
68476;BME280;55464;48.266;14.188;2023-10-13T01:06:29;97894.78;;;21.65;53.13
68476;BME280;55464;48.266;14.188;2023-10-13T01:11:23;97904.75;;;21.66;53.39
68476;BME280;55464;48.266;14.188;2023-10-13T01:13:49;97911.19;;;21.67;53.35
68476;BME280;55464;48.266;14.188;2023-10-13T01:16:17;97902.00;;;21.63;53.55
68476;BME280;55464;48.266;14.188;2023-10-13T01:18:43;97905.22;;;21.61;53.40
68476;BME280;55464;48.266;14.188;2023-10-13T01:21:15;97896.03;;;21.57;53.14
68476;BME280;55464;48.266;14.188;2023-10-13T01:23:45;97891.66;;;21.52;53.25
68476;BME280;55464;48.266;14.188;2023-10-13T01:26:12;97899.22;;;21.59;53.46
68476;BME280;55464;48.266;14.188;2023-10-13T01:28:41;97898.47;;;21.55;52.89
68476;BME280;55464;48.266;14.188;2023-10-13T01:31:13;97896.88;;;21.54;53.09
68476;BME280;55464;48.266;14.188;2023-10-13T01:33:50;97895.38;;;21.46;53.00
68476;BME280;55464;48.266;14.188;2023-10-13T01:36:19;97889.75;;;21.46;53.15
68476;BME280;55464;48.266;14.188;2023-10-13T01:38:44;97900.09;;;21.52;52.86
68476;BME280;55464;48.266;14.188;2023-10-13T01:41:12;97896.47;;;21.56;52.84
68476;BME280;55464;48.266;14.188;2023-10-13T01:43:38;97895.28;;;21.53;52.91
68476;BME280;55464;48.266;14.188;2023-10-13T01:46:03;97890.84;;;21.56;52.71
68476;BME280;55464;48.266;14.188;2023-10-13T01:48:29;97886.06;;;21.52;52.93
68476;BME280;55464;48.266;14.188;2023-10-13T01:50:58;97890.44;;;21.57;52.76
68476;BME280;55464;48.266;14.188;2023-10-13T01:53:26;97894.44;;;21.56;53.06
68476;BME280;55464;48.266;14.188;2023-10-13T01:55:54;97894.03;;;21.58;52.90
68476;BME280;55464;48.266;14.188;2023-10-13T01:58:22;97890.81;;;21.59;52.88
68476;BME280;55464;48.266;14.188;2023-10-13T02:00:48;97892.03;;;21.58;52.86
68476;BME280;55464;48.266;14.188;2023-10-13T02:03:13;97897.63;;;21.62;52.84
68476;BME280;55464;48.266;14.188;2023-10-13T02:08:15;97898.06;;;21.57;52.47
68476;BME280;55464;48.266;14.188;2023-10-13T02:10:52;97899.75;;;21.47;52.58
68476;BME280;55464;48.266;14.188;2023-10-13T02:13:20;97899.00;;;21.39;52.80
68476;BME280;55464;48.266;14.188;2023-10-13T02:15:48;97902.22;;;21.38;52.38
68476;BME280;55464;48.266;14.188;2023-10-13T02:18:19;97894.66;;;21.31;52.72
68476;BME280;55464;48.266;14.188;2023-10-13T02:21:08;97899.44;;;21.34;52.85
68476;BME280;55464;48.266;14.188;2023-10-13T02:23:40;97909.50;;;21.28;52.64
68476;BME280;55464;48.266;14.188;2023-10-13T02:26:10;97895.19;;;21.15;53.09
68476;BME280;55464;48.266;14.188;2023-10-13T02:28:55;97910.34;;;21.21;53.24
68476;BME280;55464;48.266;14.188;2023-10-13T02:31:23;97910.75;;;21.23;53.01
68476;BME280;55464;48.266;14.188;2023-10-13T02:33:50;97909.53;;;21.24;53.20
68476;BME280;55464;48.266;14.188;2023-10-13T02:36:15;97918.34;;;21.23;53.50
68476;BME280;55464;48.266;14.188;2023-10-13T02:38:47;97915.25;;;21.10;54.01
68476;BME280;55464;48.266;14.188;2023-10-13T02:41:17;97912.41;;;21.13;54.30
68476;BME280;55464;48.266;14.188;2023-10-13T02:44:06;97909.94;;;21.23;54.32
68476;BME280;55464;48.266;14.188;2023-10-13T02:46:33;97912.66;;;21.30;53.85
68476;BME280;55464;48.266;14.188;2023-10-13T02:49:02;97905.53;;;21.25;53.97
68476;BME280;55464;48.266;14.188;2023-10-13T02:51:35;97910.69;;;21.30;54.00
68476;BME280;55464;48.266;14.188;2023-10-13T02:54:01;97918.69;;;21.32;54.22
68476;BME280;55464;48.266;14.188;2023-10-13T02:56:35;97923.47;;;21.31;54.23
68476;BME280;55464;48.266;14.188;2023-10-13T02:59:02;97925.13;;;21.29;54.04
68476;BME280;55464;48.266;14.188;2023-10-13T03:01:34;97935.88;;;21.34;53.58
68476;BME280;55464;48.266;14.188;2023-10-13T03:04:01;97933.06;;;21.38;53.73
68476;BME280;55464;48.266;14.188;2023-10-13T03:06:28;97934.66;;;21.35;53.86
68476;BME280;55464;48.266;14.188;2023-10-13T03:09:10;97925.91;;;21.29;53.53
68476;BME280;55464;48.266;14.188;2023-10-13T03:11:48;97919.03;;;21.38;53.31
68476;BME280;55464;48.266;14.188;2023-10-13T03:14:18;97913.81;;;21.40;53.07
68476;BME280;55464;48.266;14.188;2023-10-13T03:17:02;97913.78;;;21.43;52.88
68476;BME280;55464;48.266;14.188;2023-10-13T03:19:31;97915.84;;;21.36;52.86
68476;BME280;55464;48.266;14.188;2023-10-13T03:22:03;97920.25;;;21.33;52.81
68476;BME280;55464;48.266;14.188;2023-10-13T03:24:36;97917.94;;;21.24;53.00
68476;BME280;55464;48.266;14.188;2023-10-13T03:27:07;97916.00;;;21.14;53.35
68476;BME280;55464;48.266;14.188;2023-10-13T03:29:37;97908.50;;;21.04;53.54
68476;BME280;55464;48.266;14.188;2023-10-13T03:32:08;97920.91;;;21.03;53.54
68476;BME280;55464;48.266;14.188;2023-10-13T03:34:43;97909.44;;;20.86;53.56
68476;BME280;55464;48.266;14.188;2023-10-13T03:37:32;97921.50;;;20.72;53.92
68476;BME280;55464;48.266;14.188;2023-10-13T03:40:10;97924.31;;;20.72;53.95
68476;BME280;55464;48.266;14.188;2023-10-13T03:42:46;97915.13;;;20.61;53.70
68476;BME280;55464;48.266;14.188;2023-10-13T03:45:31;97929.16;;;20.65;54.62
68476;BME280;55464;48.266;14.188;2023-10-13T03:48:04;97919.56;;;20.62;54.46
68476;BME280;55464;48.266;14.188;2023-10-13T03:50:35;97930.34;;;20.60;54.34
68476;BME280;55464;48.266;14.188;2023-10-13T03:53:01;97933.59;;;20.55;54.22
68476;BME280;55464;48.266;14.188;2023-10-13T03:55:27;97930.38;;;20.53;54.29
68476;BME280;55464;48.266;14.188;2023-10-13T03:57:58;97924.41;;;20.47;53.90
68476;BME280;55464;48.266;14.188;2023-10-13T04:00:25;97917.66;;;20.41;54.45
68476;BME280;55464;48.266;14.188;2023-10-13T04:02:53;97927.59;;;20.46;53.62
68476;BME280;55464;48.266;14.188;2023-10-13T04:05:27;97923.25;;;20.41;53.83
68476;BME280;55464;48.266;14.188;2023-10-13T04:08:05;97915.25;;;20.39;54.08
68476;BME280;55464;48.266;14.188;2023-10-13T04:10:51;97913.66;;;20.35;54.48
68476;BME280;55464;48.266;14.188;2023-10-13T04:13:16;97924.03;;;20.42;54.72
68476;BME280;55464;48.266;14.188;2023-10-13T04:15:45;97914.88;;;20.37;54.38
68476;BME280;55464;48.266;14.188;2023-10-13T04:18:30;97927.22;;;20.40;54.17
68476;BME280;55464;48.266;14.188;2023-10-13T04:21:14;97918.50;;;20.31;54.48
68476;BME280;55464;48.266;14.188;2023-10-13T04:23:58;97924.84;;;20.35;54.48
68476;BME280;55464;48.266;14.188;2023-10-13T04:26:42;97920.06;;;20.32;54.89
68476;BME280;55464;48.266;14.188;2023-10-13T04:29:24;97921.69;;;20.29;54.69
68476;BME280;55464;48.266;14.188;2023-10-13T04:32:11;97919.69;;;20.26;55.11
68476;BME280;55464;48.266;14.188;2023-10-13T04:34:39;97912.13;;;20.19;54.71
68476;BME280;55464;48.266;14.188;2023-10-13T04:37:05;97910.56;;;20.15;54.82
68476;BME280;55464;48.266;14.188;2023-10-13T04:39:48;97914.53;;;20.14;54.84
68476;BME280;55464;48.266;14.188;2023-10-13T04:42:21;97912.56;;;20.07;55.32
68476;BME280;55464;48.266;14.188;2023-10-13T04:45:06;97913.81;;;20.02;54.88
68476;BME280;55464;48.266;14.188;2023-10-13T04:47:51;97923.00;;;19.99;55.78
68476;BME280;55464;48.266;14.188;2023-10-13T04:50:22;97926.16;;;20.05;55.30
68476;BME280;55464;48.266;14.188;2023-10-13T04:52:52;97926.16;;;20.12;55.47
68476;BME280;55464;48.266;14.188;2023-10-13T04:55:27;97912.97;;;20.16;55.63
68476;BME280;55464;48.266;14.188;2023-10-13T04:57:59;97910.56;;;20.15;56.01
68476;BME280;55464;48.266;14.188;2023-10-13T05:00:39;97896.59;;;20.11;55.32
68476;BME280;55464;48.266;14.188;2023-10-13T05:03:28;97912.97;;;20.16;54.85
68476;BME280;55464;48.266;14.188;2023-10-13T05:06:12;97918.16;;;20.14;54.75
68476;BME280;55464;48.266;14.188;2023-10-13T05:08:56;97908.22;;;20.02;54.49
68476;BME280;55464;48.266;14.188;2023-10-13T05:11:39;97922.19;;;20.06;54.77
68476;BME280;55464;48.266;14.188;2023-10-13T05:14:23;97922.97;;;20.07;54.72
68476;BME280;55464;48.266;14.188;2023-10-13T05:17:07;97914.59;;;20.03;55.27
68476;BME280;55464;48.266;14.188;2023-10-13T05:19:56;97924.97;;;20.06;54.78
68476;BME280;55464;48.266;14.188;2023-10-13T05:22:40;97919.41;;;20.02;55.44
68476;BME280;55464;48.266;14.188;2023-10-13T05:25:23;97924.19;;;20.09;54.46
68476;BME280;55464;48.266;14.188;2023-10-13T05:28:07;97924.56;;;20.08;55.10
68476;BME280;55464;48.266;14.188;2023-10-13T05:30:51;97924.19;;;20.06;54.78
68476;BME280;55464;48.266;14.188;2023-10-13T05:33:35;97920.59;;;20.01;55.07
68476;BME280;55464;48.266;14.188;2023-10-13T05:36:19;97931.78;;;19.98;55.12
68476;BME280;55464;48.266;14.188;2023-10-13T05:39:03;97942.59;;;19.99;54.89
68476;BME280;55464;48.266;14.188;2023-10-13T05:41:47;97933.03;;;19.93;54.21
68476;BME280;55464;48.266;14.188;2023-10-13T05:44:31;97924.63;;;19.86;54.83
68476;BME280;55464;48.266;14.188;2023-10-13T05:47:03;97933.81;;;19.94;54.91
68476;BME280;55464;48.266;14.188;2023-10-13T05:49:46;97935.81;;;19.97;55.55
68476;BME280;55464;48.266;14.188;2023-10-13T05:52:16;97935.81;;;19.97;55.79
68476;BME280;55464;48.266;14.188;2023-10-13T05:55:04;97934.97;;;20.00;55.56
68476;BME280;55464;48.266;14.188;2023-10-13T05:57:48;97945.38;;;19.99;54.86
68476;BME280;55464;48.266;14.188;2023-10-13T06:00:38;97937.78;;;19.96;55.25
68476;BME280;55464;48.266;14.188;2023-10-13T06:03:22;97956.97;;;20.01;55.62
68476;BME280;55464;48.266;14.188;2023-10-13T06:06:07;97964.97;;;19.99;55.98
68476;BME280;55464;48.266;14.188;2023-10-13T06:08:51;97967.75;;;19.99;55.89
68476;BME280;55464;48.266;14.188;2023-10-13T06:11:34;97950.97;;;19.99;56.14
68476;BME280;55464;48.266;14.188;2023-10-13T06:14:18;97965.31;;;20.09;55.87
68476;BME280;55464;48.266;14.188;2023-10-13T06:17:02;97961.31;;;20.13;55.60
68476;BME280;55464;48.266;14.188;2023-10-13T06:19:46;97944.97;;;20.05;55.81
68476;BME280;55464;48.266;14.188;2023-10-13T06:22:30;97963.72;;;20.18;55.64
68476;BME280;55464;48.266;14.188;2023-10-13T06:25:14;97955.72;;;20.20;55.62
68476;BME280;55464;48.266;14.188;2023-10-13T06:27:58;97954.53;;;20.18;55.87
68476;BME280;55464;48.266;14.188;2023-10-13T06:30:42;97956.91;;;20.19;56.08
68476;BME280;55464;48.266;14.188;2023-10-13T06:33:11;97952.13;;;20.20;56.00
68476;BME280;55464;48.266;14.188;2023-10-13T06:35:36;97950.91;;;20.17;56.06
68476;BME280;55464;48.266;14.188;2023-10-13T06:38:04;97951.72;;;20.21;56.05
68476;BME280;55464;48.266;14.188;2023-10-13T06:40:35;97968.09;;;20.30;55.92
68476;BME280;55464;48.266;14.188;2023-10-13T06:43:01;97967.66;;;20.28;56.00
68476;BME280;55464;48.266;14.188;2023-10-13T06:45:38;97976.84;;;20.36;55.92
68476;BME280;55464;48.266;14.188;2023-10-13T06:48:04;97971.69;;;20.27;56.05
68476;BME280;55464;48.266;14.188;2023-10-13T06:50:30;97987.66;;;20.34;55.93
68476;BME280;55464;48.266;14.188;2023-10-13T06:53:04;97970.88;;;20.30;55.75
68476;BME280;55464;48.266;14.188;2023-10-13T06:55:30;97969.25;;;20.36;56.11
68476;BME280;55464;48.266;14.188;2023-10-13T06:58:00;97977.56;;;20.51;55.98
68476;BME280;55464;48.266;14.188;2023-10-13T07:00:26;97985.94;;;20.69;55.59
68476;BME280;55464;48.266;14.188;2023-10-13T07:03:00;97973.53;;;20.66;54.91
68476;BME280;55464;48.266;14.188;2023-10-13T07:05:38;97994.38;;;20.51;55.79
68476;BME280;55464;48.266;14.188;2023-10-13T07:08:05;97986.38;;;20.49;55.96
68476;BME280;55464;48.266;14.188;2023-10-13T07:10:31;97983.56;;;20.53;56.03
68476;BME280;55464;48.266;14.188;2023-10-13T07:13:01;97973.63;;;20.45;55.92
68476;BME280;55464;48.266;14.188;2023-10-13T07:15:26;97984.00;;;20.48;56.09
68476;BME280;55464;48.266;14.188;2023-10-13T07:17:54;97983.56;;;20.49;56.06
68476;BME280;55464;48.266;14.188;2023-10-13T07:20:24;97973.19;;;20.50;56.07
68476;BME280;55464;48.266;14.188;2023-10-13T07:22:59;97982.75;;;20.59;56.04
68476;BME280;55464;48.266;14.188;2023-10-13T07:25:34;97982.34;;;20.61;55.96
68476;BME280;55464;48.266;14.188;2023-10-13T07:28:04;97994.34;;;20.69;56.10
68476;BME280;55464;48.266;14.188;2023-10-13T07:30:29;97985.53;;;20.67;55.99
68476;BME280;55464;48.266;14.188;2023-10-13T07:32:56;97987.91;;;20.72;55.83
68476;BME280;55464;48.266;14.188;2023-10-13T07:35:25;97990.66;;;20.83;56.07
68476;BME280;55464;48.266;14.188;2023-10-13T07:37:55;97991.47;;;20.83;55.95
68476;BME280;55464;48.266;14.188;2023-10-13T07:40:25;97998.19;;;20.93;55.77
68476;BME280;55464;48.266;14.188;2023-10-13T07:42:50;97989.81;;;20.89;56.09
68476;BME280;55464;48.266;14.188;2023-10-13T07:45:16;98000.53;;;21.05;55.61
68476;BME280;55464;48.266;14.188;2023-10-13T07:47:50;97995.69;;;21.13;55.52
68476;BME280;55464;48.266;14.188;2023-10-13T07:50:16;97993.69;;;21.13;55.07
68476;BME280;55464;48.266;14.188;2023-10-13T07:52:50;97986.03;;;21.18;55.14
68476;BME280;55464;48.266;14.188;2023-10-13T07:55:31;97989.22;;;21.23;54.93
68476;BME280;55464;48.266;14.188;2023-10-13T07:57:59;97986.81;;;21.25;55.01
68476;BME280;55464;48.266;14.188;2023-10-13T08:00:25;97991.16;;;21.30;54.61
68476;BME280;55464;48.266;14.188;2023-10-13T08:03:03;97985.97;;;21.32;54.61
68476;BME280;55464;48.266;14.188;2023-10-13T08:05:44;97987.50;;;21.37;54.68
68476;BME280;55464;48.266;14.188;2023-10-13T08:08:29;97995.91;;;21.40;54.95
68476;BME280;55464;48.266;14.188;2023-10-13T08:11:06;97986.66;;;21.43;54.95
68476;BME280;55464;48.266;14.188;2023-10-13T08:13:58;97985.84;;;21.50;54.23
68476;BME280;55464;48.266;14.188;2023-10-13T08:16:42;97983.41;;;21.56;54.43
68476;BME280;55464;48.266;14.188;2023-10-13T08:19:21;97979.41;;;21.57;54.30
68476;BME280;55464;48.266;14.188;2023-10-13T08:22:08;97978.94;;;21.62;54.21
68476;BME280;55464;48.266;14.188;2023-10-13T08:24:43;97982.50;;;21.66;54.00
68476;BME280;55464;48.266;14.188;2023-10-13T08:27:08;97980.84;;;21.72;54.20
68476;BME280;55464;48.266;14.188;2023-10-13T08:29:39;97984.84;;;21.75;54.43
68476;BME280;55464;48.266;14.188;2023-10-13T08:32:23;97990.41;;;21.78;54.08
68476;BME280;55464;48.266;14.188;2023-10-13T08:34:53;97989.97;;;21.83;53.83
68476;BME280;55464;48.266;14.188;2023-10-13T08:37:19;97991.97;;;21.83;53.88
68476;BME280;55464;48.266;14.188;2023-10-13T08:39:48;97985.09;;;21.87;53.91
68476;BME280;55464;48.266;14.188;2023-10-13T08:42:34;97988.72;;;21.88;53.61
68476;BME280;55464;48.266;14.188;2023-10-13T08:47:35;97978.25;;;21.92;54.15
68476;BME280;55464;48.266;14.188;2023-10-13T08:50:03;97976.56;;;21.98;53.78
68476;BME280;55464;48.266;14.188;2023-10-13T08:52:48;97978.16;;;22.03;53.89
68476;BME280;55464;48.266;14.188;2023-10-13T08:55:14;97983.72;;;22.06;54.23
68476;BME280;55464;48.266;14.188;2023-10-13T08:57:59;97990.09;;;22.10;53.87
68476;BME280;55464;48.266;14.188;2023-10-13T09:00:42;97988.44;;;22.17;53.42
68476;BME280;55464;48.266;14.188;2023-10-13T09:03:22;97977.63;;;22.15;53.62
68476;BME280;55464;48.266;14.188;2023-10-13T09:06:05;97979.94;;;22.24;53.97
68476;BME280;55464;48.266;14.188;2023-10-13T09:08:33;97974.66;;;22.30;53.65
68476;BME280;55464;48.266;14.188;2023-10-13T09:11:10;97975.50;;;22.26;52.19
68476;BME280;55464;48.266;14.188;2023-10-13T09:13:39;97966.31;;;22.22;51.88
68476;BME280;55464;48.266;14.188;2023-10-13T09:16:13;97975.91;;;22.28;51.96
68476;BME280;55464;48.266;14.188;2023-10-13T09:18:47;97975.03;;;22.32;51.41
68476;BME280;55464;48.266;14.188;2023-10-13T09:21:15;97973.00;;;22.36;51.67
68476;BME280;55464;48.266;14.188;2023-10-13T09:24:14;97970.19;;;22.36;51.30
68476;BME280;55464;48.266;14.188;2023-10-13T09:26:46;97970.56;;;22.38;50.79
68476;BME280;55464;48.266;14.188;2023-10-13T09:29:21;97974.94;;;22.42;51.68
68476;BME280;55464;48.266;14.188;2023-10-13T09:31:48;97965.25;;;22.47;52.09
68476;BME280;55464;48.266;14.188;2023-10-13T09:34:25;97966.38;;;22.53;51.35
68476;BME280;55464;48.266;14.188;2023-10-13T09:36:57;97972.75;;;22.57;50.87
68476;BME280;55464;48.266;14.188;2023-10-13T09:39:26;97963.84;;;22.62;51.33
68476;BME280;55464;48.266;14.188;2023-10-13T09:42:10;97958.28;;;22.59;51.47
68476;BME280;55464;48.266;14.188;2023-10-13T09:44:37;97951.81;;;22.62;50.99
68476;BME280;55464;48.266;14.188;2023-10-13T09:47:09;97958.13;;;22.70;51.28
68476;BME280;55464;48.266;14.188;2023-10-13T09:49:45;97955.28;;;22.73;50.52
68476;BME280;55464;48.266;14.188;2023-10-13T09:52:16;97954.44;;;22.76;50.18
68476;BME280;55464;48.266;14.188;2023-10-13T09:54:58;97945.91;;;22.83;50.59
68476;BME280;55464;48.266;14.188;2023-10-13T09:57:31;97945.47;;;22.85;50.69
68476;BME280;55464;48.266;14.188;2023-10-13T10:00:20;97945.84;;;22.87;50.54
68476;BME280;55464;48.266;14.188;2023-10-13T10:03:11;97944.97;;;22.94;50.71
68476;BME280;55464;48.266;14.188;2023-10-13T10:05:43;97931.63;;;22.98;50.01
68476;BME280;55464;48.266;14.188;2023-10-13T10:08:23;97929.19;;;23.00;50.46
68476;BME280;55464;48.266;14.188;2023-10-13T10:11:04;97931.16;;;23.03;49.51
68476;BME280;55464;48.266;14.188;2023-10-13T10:13:39;97920.69;;;23.03;49.55
68476;BME280;55464;48.266;14.188;2023-10-13T10:16:15;97935.44;;;23.15;49.34
68476;BME280;55464;48.266;14.188;2023-10-13T10:18:45;97919.00;;;23.13;48.64
68476;BME280;55464;48.266;14.188;2023-10-13T10:21:10;97934.53;;;23.21;48.24
68476;BME280;55464;48.266;14.188;2023-10-13T10:23:37;97928.50;;;23.23;48.20
68476;BME280;55464;48.266;14.188;2023-10-13T10:26:15;97920.47;;;23.21;46.77
68476;BME280;55464;48.266;14.188;2023-10-13T10:28:45;97926.81;;;23.26;46.32
68476;BME280;55464;48.266;14.188;2023-10-13T10:31:11;97919.19;;;23.26;47.15
68476;BME280;55464;48.266;14.188;2023-10-13T10:33:42;97922.25;;;23.35;48.25
68476;BME280;55464;48.266;14.188;2023-10-13T10:36:08;97926.47;;;23.47;47.47
68476;BME280;55464;48.266;14.188;2023-10-13T10:38:52;97916.25;;;23.57;46.86
68476;BME280;55464;48.266;14.188;2023-10-13T10:41:25;97908.19;;;23.59;46.87
68476;BME280;55464;48.266;14.188;2023-10-13T10:43:54;97905.97;;;23.70;46.93
68476;BME280;55464;48.266;14.188;2023-10-13T10:46:27;97908.97;;;23.83;47.03
68476;BME280;55464;48.266;14.188;2023-10-13T10:48:55;97904.88;;;23.88;46.97
68476;BME280;55464;48.266;14.188;2023-10-13T10:51:28;97898.31;;;23.94;46.82
68476;BME280;55464;48.266;14.188;2023-10-13T10:53:57;97892.09;;;24.03;46.97
68476;BME280;55464;48.266;14.188;2023-10-13T10:56:26;97885.97;;;24.08;46.96
68476;BME280;55464;48.266;14.188;2023-10-13T10:59:02;97882.22;;;24.15;47.37
68476;BME280;55464;48.266;14.188;2023-10-13T11:01:33;97880.41;;;24.25;47.22
68476;BME280;55464;48.266;14.188;2023-10-13T11:04:03;97870.66;;;24.29;46.45
68476;BME280;55464;48.266;14.188;2023-10-13T11:06:53;97860.56;;;24.32;46.35
68476;BME280;55464;48.266;14.188;2023-10-13T11:09:30;97866.38;;;24.41;45.63
68476;BME280;55464;48.266;14.188;2023-10-13T11:14:41;97867.75;;;24.53;44.16
68476;BME280;55464;48.266;14.188;2023-10-13T11:17:07;97856.41;;;24.57;45.00
68476;BME280;55464;48.266;14.188;2023-10-13T11:19:42;97855.47;;;24.63;44.71
68476;BME280;55464;48.266;14.188;2023-10-13T11:22:18;97848.41;;;24.71;44.61
68476;BME280;55464;48.266;14.188;2023-10-13T11:25:05;97848.97;;;24.83;44.99
68476;BME280;55464;48.266;14.188;2023-10-13T11:27:35;97840.34;;;24.90;44.75
68476;BME280;55464;48.266;14.188;2023-10-13T11:30:12;97842.09;;;25.00;44.02
68476;BME280;55464;48.266;14.188;2023-10-13T11:32:41;97838.75;;;25.05;43.05
68476;BME280;55464;48.266;14.188;2023-10-13T11:35:09;97821.47;;;25.03;42.71
68476;BME280;55464;48.266;14.188;2023-10-13T11:37:54;97833.72;;;25.13;42.69
68476;BME280;55464;48.266;14.188;2023-10-13T11:40:29;97823.50;;;25.19;41.42
68476;BME280;55464;48.266;14.188;2023-10-13T11:43:37;97817.31;;;25.24;42.40
68476;BME280;55464;48.266;14.188;2023-10-13T11:46:26;97821.81;;;25.38;41.68
68476;BME280;55464;48.266;14.188;2023-10-13T11:49:05;97802.06;;;25.38;42.41
68476;BME280;55464;48.266;14.188;2023-10-13T11:51:50;97810.72;;;25.47;41.85
68476;BME280;55464;48.266;14.188;2023-10-13T11:54:17;97815.72;;;25.56;41.37
68476;BME280;55464;48.266;14.188;2023-10-13T11:56:45;97799.81;;;25.62;41.69
68476;BME280;55464;48.266;14.188;2023-10-13T11:59:11;97811.22;;;25.72;41.49
68476;BME280;55464;48.266;14.188;2023-10-13T12:01:46;97805.47;;;25.75;40.94
68476;BME280;55464;48.266;14.188;2023-10-13T12:04:30;97782.31;;;25.67;39.66
68476;BME280;55464;48.266;14.188;2023-10-13T12:07:15;97790.94;;;25.77;40.12
68476;BME280;55464;48.266;14.188;2023-10-13T12:09:50;97791.19;;;25.82;39.94
68476;BME280;55464;48.266;14.188;2023-10-13T12:12:22;97779.44;;;25.84;39.10
68476;BME280;55464;48.266;14.188;2023-10-13T12:14:48;97787.78;;;25.88;39.65
68476;BME280;55464;48.266;14.188;2023-10-13T12:17:24;97790.34;;;25.98;38.77
68476;BME280;55464;48.266;14.188;2023-10-13T12:19:53;97778.03;;;26.05;38.19
68476;BME280;55464;48.266;14.188;2023-10-13T12:22:19;97764.63;;;26.09;38.42
68476;BME280;55464;48.266;14.188;2023-10-13T12:24:56;97760.91;;;26.12;37.75
68476;BME280;55464;48.266;14.188;2023-10-13T12:27:22;97762.91;;;26.12;37.56
68476;BME280;55464;48.266;14.188;2023-10-13T12:30:00;97754.00;;;26.13;37.05
68476;BME280;55464;48.266;14.188;2023-10-13T12:32:33;97754.91;;;26.23;37.88
68476;BME280;55464;48.266;14.188;2023-10-13T12:35:00;97763.50;;;26.32;37.23
68476;BME280;55464;48.266;14.188;2023-10-13T12:37:29;97755.13;;;26.41;37.57
68476;BME280;55464;48.266;14.188;2023-10-13T12:40:05;97746.09;;;26.47;37.64
68476;BME280;55464;48.266;14.188;2023-10-13T12:42:49;97745.84;;;26.54;37.45
68476;BME280;55464;48.266;14.188;2023-10-13T12:45:38;97748.09;;;26.59;36.97
68476;BME280;55464;48.266;14.188;2023-10-13T12:48:22;97727.44;;;26.62;36.47
68476;BME280;55464;48.266;14.188;2023-10-13T12:51:06;97726.09;;;26.67;35.28
68476;BME280;55464;48.266;14.188;2023-10-13T12:53:51;97725.53;;;26.72;36.31
68476;BME280;55464;48.266;14.188;2023-10-13T12:56:17;97721.00;;;26.74;35.83
68476;BME280;55464;48.266;14.188;2023-10-13T12:58:43;97716.81;;;26.79;36.12
68476;BME280;55464;48.266;14.188;2023-10-13T13:01:18;97716.69;;;26.83;34.18
68476;BME280;55464;48.266;14.188;2023-10-13T13:03:47;97711.03;;;26.83;34.11
68476;BME280;55464;48.266;14.188;2023-10-13T13:06:17;97710.56;;;26.84;34.92
68476;BME280;55464;48.266;14.188;2023-10-13T13:08:44;97702.28;;;26.90;34.39
68476;BME280;55464;48.266;14.188;2023-10-13T13:11:10;97699.47;;;26.90;34.16
68476;BME280;55464;48.266;14.188;2023-10-13T13:13:36;97704.09;;;26.96;34.56
68476;BME280;55464;48.266;14.188;2023-10-13T13:16:02;97688.81;;;26.94;35.21
68476;BME280;55464;48.266;14.188;2023-10-13T13:18:29;97696.25;;;27.01;36.13
68476;BME280;55464;48.266;14.188;2023-10-13T13:20:54;97690.72;;;26.97;35.67
68476;BME280;55464;48.266;14.188;2023-10-13T13:23:21;97693.97;;;27.08;35.24
68476;BME280;55464;48.266;14.188;2023-10-13T13:25:52;97676.34;;;27.04;34.25
68476;BME280;55464;48.266;14.188;2023-10-13T13:28:17;97684.09;;;27.13;35.89
68476;BME280;55464;48.266;14.188;2023-10-13T13:30:43;97679.91;;;27.17;35.58
68476;BME280;55464;48.266;14.188;2023-10-13T13:33:09;97672.34;;;27.14;34.39
68476;BME280;55464;48.266;14.188;2023-10-13T13:35:41;97672.78;;;27.13;34.23